Elba, Minnesota
Current Conditions -  °F | °C
As of 12:53 PM on Thursday 23 Oct 2014 (Local Time) from KONA Reporting Station
Overcast Overcast  
Wind Chill: 11°   Ceiling: 900
Heat Index: 11°   Visibility: 7mi
Dew Point:   Wind: 3mph
Humidity: 88%   Direction: 190°S
Pressure: 30.04"   Gusts: NA
Location:  44.1503°N, 91.9879°W
Report Text: KONA 231753Z AUTO 19003KT 7SM OVC009 11/09 A3004 RMK AO2
Loading
Personal Weather Stations






























Interactive Weather Map
Tropical Storm Tracking
New forecast layout! Learn more

10-Day Weather Forecast

Advertisements
Track Severe Weather on mobile